createdAt,value
2023-03-02T00:02:15.283Z,97424.47
2023-03-02T00:04:46.523Z,97427.91
2023-03-02T00:07:19.457Z,97428.78
2023-03-02T00:09:46.250Z,97423.56
2023-03-02T00:12:13.718Z,97425.31
2023-03-02T00:14:40.392Z,97433.03
2023-03-02T00:17:08.050Z,97421.16
2023-03-02T00:19:34.690Z,97419.53
2023-03-02T00:22:01.265Z,97420.31
2023-03-02T00:24:27.919Z,97429.88
2023-03-02T00:26:54.641Z,97422.34
2023-03-02T00:29:21.325Z,97421.41
2023-03-02T00:31:48.419Z,97426.63
2023-03-02T00:34:15.151Z,97431.72
2023-03-02T00:36:42.057Z,97421.44
2023-03-02T00:39:08.915Z,97428.28
2023-03-02T00:41:35.551Z,97425.69
2023-03-02T00:44:02.121Z,97434.72
2023-03-02T00:46:28.842Z,97427.56
2023-03-02T00:48:55.615Z,97424.22
2023-03-02T00:51:22.305Z,97428.72
2023-03-02T00:53:48.899Z,97426.09
2023-03-02T00:56:15.571Z,97420.88
2023-03-02T00:58:47.412Z,97428.84
2023-03-02T01:01:15.425Z,97423.75
2023-03-02T01:03:46.639Z,97416.16
2023-03-02T01:06:20.632Z,97424.44
2023-03-02T01:08:47.915Z,97428.72
2023-03-02T01:11:17.513Z,97421.13
2023-03-02T01:13:44.955Z,97419.28
2023-03-02T01:16:12.164Z,97416.69
2023-03-02T01:18:39.850Z,97407.88
2023-03-02T01:21:13.022Z,97414.91
2023-03-02T01:23:39.741Z,97411.50
2023-03-02T01:26:07.452Z,97415.88
2023-03-02T01:28:34.121Z,97402.72
2023-03-02T01:31:02.693Z,97404.44
2023-03-02T01:33:30.262Z,97402.97
2023-03-02T01:35:56.958Z,97396.72
2023-03-02T01:38:23.669Z,97397.63
2023-03-02T01:40:50.342Z,97399.38
2023-03-02T01:43:17.118Z,97389.78
2023-03-02T01:45:54.238Z,97390.75
2023-03-02T01:49:02.689Z,97394.22
2023-03-02T01:51:43.706Z,97389.75
2023-03-02T01:54:22.823Z,97386.31
2023-03-02T01:57:01.200Z,97389.94
2023-03-02T01:59:31.060Z,97386.56
2023-03-02T02:02:00.823Z,97384.75
2023-03-02T02:04:30.988Z,97377.88
2023-03-02T02:07:03.671Z,97367.50
2023-03-02T02:09:33.549Z,97371.00
2023-03-02T02:12:00.739Z,97378.84
2023-03-02T02:14:27.855Z,97374.44
2023-03-02T02:16:55.066Z,97373.59
2023-03-02T02:19:40.142Z,97374.44
2023-03-02T02:22:09.974Z,97369.22
2023-03-02T02:24:44.148Z,97375.41
2023-03-02T02:27:12.214Z,97371.09
2023-03-02T02:29:47.450Z,97367.75
2023-03-02T02:32:21.842Z,97366.97
2023-03-02T02:34:59.403Z,97368.75
2023-03-02T02:37:34.376Z,97361.03
2023-03-02T02:40:07.242Z,97361.97
2023-03-02T02:42:39.618Z,97376.91
2023-03-02T02:45:17.646Z,97366.25
2023-03-02T02:47:44.454Z,97358.13
2023-03-02T02:50:19.647Z,97354.84
2023-03-02T02:52:52.584Z,97352.22
2023-03-02T02:55:22.769Z,97363.47
2023-03-02T02:57:54.856Z,97361.59
2023-03-02T03:00:23.390Z,97358.91
2023-03-02T03:02:58.889Z,97358.94
2023-03-02T03:05:25.508Z,97354.78
2023-03-02T03:07:52.943Z,97351.38
2023-03-02T03:10:22.629Z,97348.94
2023-03-02T03:12:50.628Z,97354.13
2023-03-02T03:15:19.549Z,97350.97
2023-03-02T03:17:59.255Z,97355.69
2023-03-02T03:20:28.458Z,97350.81
2023-03-02T03:22:55.394Z,97353.38
2023-03-02T03:25:25.755Z,97341.88
2023-03-02T03:27:54.293Z,97346.16
2023-03-02T03:30:22.670Z,97343.78
2023-03-02T03:32:49.549Z,97333.56
2023-03-02T03:35:16.779Z,97335.44
2023-03-02T03:37:43.965Z,97341.44
2023-03-02T03:40:11.884Z,97341.91
2023-03-02T03:42:42.092Z,97340.91
2023-03-02T03:45:09.244Z,97343.28
2023-03-02T03:47:37.101Z,97345.06
2023-03-02T03:50:05.753Z,97336.38
2023-03-02T03:52:33.042Z,97342.09
2023-03-02T03:55:07.999Z,97329.72
2023-03-02T03:57:34.971Z,97322.63
2023-03-02T04:00:01.740Z,97319.88
2023-03-02T04:02:28.394Z,97317.22
2023-03-02T04:04:55.049Z,97316.41
2023-03-02T04:07:22.072Z,97322.44
2023-03-02T04:09:48.725Z,97318.06
2023-03-02T04:12:15.839Z,97314.66
2023-03-02T04:14:52.183Z,97320.69
2023-03-02T04:17:28.298Z,97323.22
2023-03-02T04:19:55.138Z,97327.63
2023-03-02T04:22:22.210Z,97324.34
2023-03-02T04:24:49.787Z,97317.41
2023-03-02T04:27:17.301Z,97327.69
2023-03-02T04:29:44.880Z,97331.88
2023-03-02T04:32:14.857Z,97334.38
2023-03-02T04:34:43.243Z,97331.94
2023-03-02T04:37:10.462Z,97339.53
2023-03-02T04:39:37.072Z,97336.13
2023-03-02T04:42:03.769Z,97338.66
2023-03-02T04:44:30.364Z,97333.47
2023-03-02T04:46:57.115Z,97342.19
2023-03-02T04:49:24.033Z,97337.03
2023-03-02T04:51:50.905Z,97337.09
2023-03-02T04:54:23.883Z,97334.34
2023-03-02T04:56:51.695Z,97342.16
2023-03-02T04:59:22.354Z,97330.09
2023-03-02T05:01:49.140Z,97337.81
2023-03-02T05:04:16.522Z,97337.75
2023-03-02T05:06:43.266Z,97325.69
2023-03-02T05:09:10.193Z,97329.19
2023-03-02T05:11:37.724Z,97330.19
2023-03-02T05:14:07.047Z,97329.34
2023-03-02T05:16:36.070Z,97331.94
2023-03-02T05:19:05.309Z,97329.28
2023-03-02T05:21:31.986Z,97331.13
2023-03-02T05:23:58.637Z,97329.53
2023-03-02T05:26:25.221Z,97331.06
2023-03-02T05:28:53.944Z,97330.19
2023-03-02T05:31:39.907Z,97326.78
2023-03-02T05:34:09.319Z,97344.09
2023-03-02T05:36:36.386Z,97336.22
2023-03-02T05:39:05.291Z,97331.94
2023-03-02T05:41:31.954Z,97327.66
2023-03-02T05:43:58.844Z,97327.94
2023-03-02T05:46:26.245Z,97334.78
2023-03-02T05:48:53.200Z,97336.50
2023-03-02T05:51:19.882Z,97325.22
2023-03-02T05:53:46.695Z,97339.94
2023-03-02T05:56:13.296Z,97337.38
2023-03-02T05:58:39.930Z,97342.38
2023-03-02T06:01:12.669Z,97348.34
2023-03-02T06:03:41.399Z,97343.13
2023-03-02T06:06:08.042Z,97342.38
2023-03-02T06:08:34.684Z,97345.66
2023-03-02T06:11:01.319Z,97344.81
2023-03-02T06:13:28.002Z,97353.56
2023-03-02T06:15:54.558Z,97346.44
2023-03-02T06:18:21.228Z,97349.94
2023-03-02T06:20:49.853Z,97348.06
2023-03-02T06:23:17.057Z,97353.13
2023-03-02T06:25:48.585Z,97350.53
2023-03-02T06:28:16.408Z,97356.44
2023-03-02T06:30:43.011Z,97358.16
2023-03-02T06:33:09.852Z,97353.84
2023-03-02T06:35:36.619Z,97347.75
2023-03-02T06:38:03.324Z,97351.28
2023-03-02T06:40:30.320Z,97351.94
2023-03-02T06:42:56.969Z,97357.97
2023-03-02T06:45:23.683Z,97346.72
2023-03-02T06:47:50.279Z,97351.91
2023-03-02T06:50:16.922Z,97345.66
2023-03-02T06:52:43.532Z,97347.31
2023-03-02T06:55:10.457Z,97345.53
2023-03-02T06:57:37.273Z,97340.19
2023-03-02T07:00:11.534Z,97338.25
2023-03-02T07:02:38.123Z,97344.13
2023-03-02T07:05:06.434Z,97350.84
2023-03-02T07:07:33.065Z,97339.56
2023-03-02T07:09:59.725Z,97354.13
2023-03-02T07:12:26.400Z,97341.13
2023-03-02T07:14:53.142Z,97346.16
2023-03-02T07:17:23.939Z,97340.66
2023-03-02T07:19:50.943Z,97341.41
2023-03-02T07:22:17.542Z,97341.19
2023-03-02T07:24:45.074Z,97336.63
2023-03-02T07:27:12.110Z,97333.63
2023-03-02T07:29:38.720Z,97326.69
2023-03-02T07:32:06.918Z,97328.28
2023-03-02T07:34:33.584Z,97323.56
2023-03-02T07:37:00.181Z,97324.19
2023-03-02T07:39:26.820Z,97321.59
2023-03-02T07:41:53.372Z,97321.44
2023-03-02T07:44:21.506Z,97328.72
2023-03-02T07:46:48.130Z,97333.50
2023-03-02T07:49:14.854Z,97333.09
2023-03-02T07:51:41.480Z,97337.63
2023-03-02T07:54:08.693Z,97338.13
2023-03-02T07:56:35.353Z,97342.28
2023-03-02T07:59:01.936Z,97342.69
2023-03-02T08:01:28.646Z,97342.97
2023-03-02T08:03:55.258Z,97345.47
2023-03-02T08:06:21.995Z,97347.72
2023-03-02T08:08:48.593Z,97345.56
2023-03-02T08:11:17.445Z,97354.44
2023-03-02T08:13:45.147Z,97348.66
2023-03-02T08:16:13.691Z,97346.97
2023-03-02T08:18:41.034Z,97343.16
2023-03-02T08:21:12.484Z,97344.69
2023-03-02T08:23:39.205Z,97345.16
2023-03-02T08:26:05.847Z,97347.81
2023-03-02T08:28:33.337Z,97342.97
2023-03-02T08:31:02.843Z,97342.25
2023-03-02T08:33:30.865Z,97336.03
2023-03-02T08:36:01.843Z,97340.22
2023-03-02T08:38:29.542Z,97340.97
2023-03-02T08:40:56.234Z,97337.00
2023-03-02T08:43:24.780Z,97333.09
2023-03-02T08:45:57.941Z,97328.53
2023-03-02T08:48:26.659Z,97326.16
2023-03-02T08:51:02.100Z,97326.16
2023-03-02T08:53:30.787Z,97321.09
2023-03-02T08:55:57.473Z,97326.66
2023-03-02T08:58:24.516Z,97315.88
2023-03-02T09:00:51.586Z,97317.91
2023-03-02T09:03:18.243Z,97325.81
2023-03-02T09:05:45.095Z,97313.63
2023-03-02T09:08:12.313Z,97320.34
2023-03-02T09:10:39.532Z,97315.00
2023-03-02T09:13:08.458Z,97311.63
2023-03-02T09:15:35.492Z,97316.81
2023-03-02T09:18:02.207Z,97313.56
2023-03-02T09:20:28.805Z,97318.94
2023-03-02T09:22:55.423Z,97315.97
2023-03-02T09:25:22.182Z,97314.09
2023-03-02T09:27:48.825Z,97308.50
2023-03-02T09:30:15.942Z,97310.97
2023-03-02T09:32:42.760Z,97309.50
2023-03-02T09:35:09.723Z,97314.81
2023-03-02T09:37:38.823Z,97306.03
2023-03-02T09:40:16.366Z,97320.34
2023-03-02T09:43:09.901Z,97314.16
2023-03-02T09:46:07.571Z,97309.03
2023-03-02T09:49:04.989Z,97319.63
2023-03-02T09:51:33.900Z,97328.66
2023-03-02T09:54:10.029Z,97318.34
2023-03-02T09:56:42.564Z,97317.25
2023-03-02T09:59:18.204Z,97318.31
2023-03-02T10:02:08.780Z,97316.81
2023-03-02T10:04:56.223Z,97315.50
2023-03-02T10:07:27.269Z,97317.59
2023-03-02T10:09:55.826Z,97321.00
2023-03-02T10:12:43.262Z,97313.44
2023-03-02T10:15:19.022Z,97319.22
2023-03-02T10:18:05.125Z,97310.66
2023-03-02T10:20:42.948Z,97314.72
2023-03-02T10:23:15.504Z,97320.50
2023-03-02T10:25:50.609Z,97327.38
2023-03-02T10:28:24.143Z,97320.81
2023-03-02T10:31:09.109Z,97320.41
2023-03-02T10:33:39.112Z,97324.13
2023-03-02T10:36:20.475Z,97320.06
2023-03-02T10:38:47.789Z,97322.84
2023-03-02T10:41:24.552Z,97322.84
2023-03-02T10:43:54.151Z,97312.38
2023-03-02T10:46:20.856Z,97304.81
2023-03-02T10:48:51.416Z,97307.91
2023-03-02T10:51:30.234Z,97298.72
2023-03-02T10:54:23.600Z,97286.91
2023-03-02T10:56:53.273Z,97286.94
2023-03-02T10:59:28.934Z,97285.78
2023-03-02T11:02:14.022Z,97281.25
2023-03-02T11:04:40.773Z,97284.66
2023-03-02T11:07:15.460Z,97280.19
2023-03-02T11:09:42.042Z,97277.75
2023-03-02T11:12:16.358Z,97286.66
2023-03-02T11:14:43.357Z,97278.38
2023-03-02T11:17:31.265Z,97279.09
2023-03-02T11:19:57.895Z,97278.31
2023-03-02T11:23:01.267Z,97268.75
2023-03-02T11:25:40.534Z,97265.50
2023-03-02T11:28:30.382Z,97265.75
2023-03-02T11:30:59.871Z,97272.16
2023-03-02T11:34:23.432Z,97266.56
2023-03-02T11:37:02.470Z,97271.19
2023-03-02T11:39:54.635Z,97256.72
2023-03-02T11:42:27.800Z,97262.06
2023-03-02T11:44:55.015Z,97262.53
2023-03-02T11:47:22.648Z,97264.44
2023-03-02T11:49:58.429Z,97263.44
2023-03-02T11:52:28.515Z,97267.25
2023-03-02T11:55:00.165Z,97264.19
2023-03-02T11:57:35.203Z,97262.97
2023-03-02T12:00:03.486Z,97266.22
2023-03-02T12:02:39.027Z,97255.84
2023-03-02T12:05:22.303Z,97247.97
2023-03-02T12:08:00.450Z,97258.34
2023-03-02T12:10:35.888Z,97248.25
2023-03-02T12:13:18.646Z,97258.50
2023-03-02T12:15:47.422Z,97249.19
2023-03-02T12:18:23.101Z,97238.59
2023-03-02T12:21:09.420Z,97246.72
2023-03-02T12:23:53.071Z,97243.81
2023-03-02T12:26:19.615Z,97234.78
2023-03-02T12:29:10.786Z,97238.84
2023-03-02T12:31:47.730Z,97233.50
2023-03-02T12:34:32.383Z,97231.13
2023-03-02T12:37:04.477Z,97228.16
2023-03-02T12:39:39.570Z,97237.13
2023-03-02T12:42:30.746Z,97229.09
2023-03-02T12:45:15.884Z,97227.41
2023-03-02T12:47:49.587Z,97220.41
2023-03-02T12:50:20.531Z,97206.31
2023-03-02T12:53:03.310Z,97212.81
2023-03-02T12:55:30.473Z,97213.19
2023-03-02T12:58:01.249Z,97197.31
2023-03-02T13:00:31.004Z,97200.28
2023-03-02T13:02:59.368Z,97193.03
2023-03-02T13:05:30.264Z,97197.25
2023-03-02T13:08:01.130Z,97186.81
2023-03-02T13:10:36.065Z,97196.38
2023-03-02T13:13:15.544Z,97187.09
2023-03-02T13:15:52.500Z,97190.50
2023-03-02T13:18:21.331Z,97182.69
2023-03-02T13:20:49.509Z,97179.56
2023-03-02T13:23:17.765Z,97175.66
2023-03-02T13:25:55.549Z,97178.19
2023-03-02T13:28:27.619Z,97175.38
2023-03-02T13:31:21.723Z,97163.75
2023-03-02T13:33:50.640Z,97173.59
2023-03-02T13:36:29.436Z,97175.88
2023-03-02T13:38:59.328Z,97177.81
2023-03-02T13:41:31.294Z,97178.31
2023-03-02T13:43:59.413Z,97174.19
2023-03-02T13:46:35.681Z,97176.50
2023-03-02T13:49:10.837Z,97175.97
2023-03-02T13:51:41.404Z,97167.31
2023-03-02T13:54:28.349Z,97169.94
2023-03-02T13:56:58.557Z,97165.38
2023-03-02T13:59:25.440Z,97165.44
2023-03-02T14:01:52.078Z,97168.63
2023-03-02T14:04:24.310Z,97166.94
2023-03-02T14:06:52.407Z,97172.56
2023-03-02T14:09:19.213Z,97168.06
2023-03-02T14:11:52.657Z,97156.88
2023-03-02T14:14:22.735Z,97153.25
2023-03-02T14:16:49.815Z,97155.59
2023-03-02T14:19:18.391Z,97150.97
2023-03-02T14:21:46.503Z,97157.44
2023-03-02T14:24:13.384Z,97145.72
2023-03-02T14:26:46.356Z,97151.97
2023-03-02T14:29:18.789Z,97143.88
2023-03-02T14:31:45.381Z,97152.38
2023-03-02T14:34:16.502Z,97152.84
2023-03-02T14:36:46.182Z,97154.06
2023-03-02T14:39:23.102Z,97150.03
2023-03-02T14:41:53.858Z,97152.72
2023-03-02T14:44:21.900Z,97153.97
2023-03-02T14:46:48.682Z,97155.84
2023-03-02T14:49:15.396Z,97153.41
2023-03-02T14:51:45.556Z,97156.59
2023-03-02T14:54:18.243Z,97155.66
2023-03-02T14:56:45.450Z,97152.81
2023-03-02T14:59:15.624Z,97156.88
2023-03-02T15:01:44.555Z,97155.28
2023-03-02T15:04:11.609Z,97156.13
2023-03-02T15:06:41.241Z,97154.13
2023-03-02T15:09:08.460Z,97151.13
2023-03-02T15:11:35.648Z,97153.03
2023-03-02T15:14:02.498Z,97149.44
2023-03-02T15:16:29.239Z,97151.53
2023-03-02T15:18:58.725Z,97157.91
2023-03-02T15:21:26.464Z,97148.53
2023-03-02T15:23:53.212Z,97156.44
2023-03-02T15:26:19.886Z,97153.63
2023-03-02T15:28:50.045Z,97148.66
2023-03-02T15:31:17.935Z,97144.03
2023-03-02T15:33:47.898Z,97150.69
2023-03-02T15:36:14.660Z,97145.16
2023-03-02T15:38:41.591Z,97152.47
2023-03-02T15:41:12.348Z,97156.69
2023-03-02T15:43:39.506Z,97155.97
2023-03-02T15:46:09.166Z,97156.25
2023-03-02T15:48:37.138Z,97157.53
2023-03-02T15:51:06.379Z,97155.97
2023-03-02T15:53:38.228Z,97161.22
2023-03-02T15:56:09.433Z,97158.50
2023-03-02T15:58:36.390Z,97164.78
2023-03-02T16:01:11.749Z,97160.47
2023-03-02T16:03:38.546Z,97172.97
2023-03-02T16:06:05.418Z,97167.13
2023-03-02T16:08:32.017Z,97181.31
2023-03-02T16:11:00.139Z,97166.19
2023-03-02T16:13:27.522Z,97174.13
2023-03-02T16:15:54.146Z,97178.13
2023-03-02T16:18:20.816Z,97180.28
2023-03-02T16:20:47.774Z,97176.41
2023-03-02T16:23:15.982Z,97171.69
2023-03-02T16:25:43.804Z,97186.97
2023-03-02T16:28:13.566Z,97191.38
2023-03-02T16:30:41.428Z,97193.78
2023-03-02T16:33:13.283Z,97194.31
2023-03-02T16:35:41.055Z,97199.97
2023-03-02T16:38:10.956Z,97191.59
2023-03-02T16:40:40.583Z,97195.41
2023-03-02T16:43:11.507Z,97200.50
2023-03-02T16:45:38.686Z,97196.84
2023-03-02T16:48:06.364Z,97202.50
2023-03-02T16:50:33.860Z,97195.94
2023-03-02T16:53:01.168Z,97201.28
2023-03-02T16:55:28.455Z,97200.25
2023-03-02T16:57:55.688Z,97205.25
2023-03-02T17:00:23.492Z,97203.94
2023-03-02T17:02:50.637Z,97199.69
2023-03-02T17:05:19.292Z,97209.25
2023-03-02T17:07:45.934Z,97213.16
2023-03-02T17:10:18.909Z,97221.00
2023-03-02T17:12:45.618Z,97217.38
2023-03-02T17:15:13.998Z,97221.31
2023-03-02T17:17:41.513Z,97217.69
2023-03-02T17:20:11.722Z,97223.38
2023-03-02T17:22:38.585Z,97228.34
2023-03-02T17:25:05.753Z,97229.03
2023-03-02T17:27:32.433Z,97238.13
2023-03-02T17:29:59.334Z,97239.50
2023-03-02T17:32:26.012Z,97238.13
2023-03-02T17:34:52.620Z,97244.00
2023-03-02T17:37:19.316Z,97257.50
2023-03-02T17:39:45.995Z,97265.78
2023-03-02T17:42:12.590Z,97266.03
2023-03-02T17:44:40.542Z,97266.53
2023-03-02T17:47:08.377Z,97272.28
2023-03-02T17:49:45.219Z,97263.22
2023-03-02T17:52:13.459Z,97272.44
2023-03-02T17:54:40.500Z,97279.34
2023-03-02T17:57:07.920Z,97285.31
2023-03-02T17:59:34.718Z,97282.16
2023-03-02T18:02:01.433Z,97282.38
2023-03-02T18:04:28.181Z,97291.44
2023-03-02T18:06:54.840Z,97300.13
2023-03-02T18:09:21.755Z,97303.09
2023-03-02T18:11:48.638Z,97296.25
2023-03-02T18:14:17.292Z,97299.34
2023-03-02T18:16:44.661Z,97300.25
2023-03-02T18:19:11.772Z,97306.50
2023-03-02T18:21:40.223Z,97310.72
2023-03-02T18:24:07.689Z,97316.63
2023-03-02T18:26:34.335Z,97319.69
2023-03-02T18:29:00.864Z,97319.00
2023-03-02T18:31:28.429Z,97322.09
2023-03-02T18:33:55.205Z,97323.06
2023-03-02T18:36:21.796Z,97321.69
2023-03-02T18:38:48.391Z,97331.28
2023-03-02T18:41:15.055Z,97322.66
2023-03-02T18:43:42.201Z,97329.56
2023-03-02T18:46:18.135Z,97329.75
2023-03-02T18:48:45.662Z,97324.94
2023-03-02T18:51:12.568Z,97334.75
2023-03-02T18:53:39.757Z,97331.59
2023-03-02T18:56:08.566Z,97328.69
2023-03-02T18:58:35.314Z,97329.16
2023-03-02T19:01:03.037Z,97329.91
2023-03-02T19:03:30.274Z,97332.44
2023-03-02T19:05:58.272Z,97315.84
2023-03-02T19:08:25.654Z,97326.97
2023-03-02T19:10:54.617Z,97323.13
2023-03-02T19:13:21.725Z,97332.44
2023-03-02T19:15:48.968Z,97337.97
2023-03-02T19:18:17.918Z,97346.06
2023-03-02T19:20:49.451Z,97334.94
2023-03-02T19:23:17.554Z,97343.78
2023-03-02T19:25:45.102Z,97330.31
2023-03-02T19:28:12.677Z,97330.44
2023-03-02T19:30:40.331Z,97331.97
2023-03-02T19:33:09.541Z,97340.13
2023-03-02T19:35:38.373Z,97346.91
2023-03-02T19:38:06.298Z,97352.88
2023-03-02T19:40:34.644Z,97351.03
2023-03-02T19:43:01.795Z,97350.88
2023-03-02T19:45:32.461Z,97347.81
2023-03-02T19:48:01.362Z,97349.38
2023-03-02T19:50:28.249Z,97346.84
2023-03-02T19:52:55.465Z,97344.69
2023-03-02T19:55:24.343Z,97355.25
2023-03-02T19:57:59.617Z,97352.78
2023-03-02T20:00:29.513Z,97358.78
2023-03-02T20:02:58.016Z,97357.06
2023-03-02T20:05:27.702Z,97371.44
2023-03-02T20:07:56.098Z,97368.31
2023-03-02T20:10:33.975Z,97359.28
2023-03-02T20:13:01.604Z,97353.84
2023-03-02T20:15:31.703Z,97351.31
2023-03-02T20:18:02.632Z,97361.81
2023-03-02T20:20:30.889Z,97369.00
2023-03-02T20:22:57.804Z,97372.34
2023-03-02T20:25:25.274Z,97371.16
2023-03-02T20:27:52.963Z,97374.28
2023-03-02T20:30:48.102Z,97369.19
2023-03-02T20:33:15.283Z,97357.97
2023-03-02T20:35:44.275Z,97358.66
2023-03-02T20:38:23.485Z,97355.19
2023-03-02T20:40:51.152Z,97356.03
2023-03-02T20:43:18.179Z,97349.19
2023-03-02T20:45:45.429Z,97343.16
2023-03-02T20:48:13.581Z,97345.13
2023-03-02T20:50:41.339Z,97336.75
2023-03-02T20:53:11.588Z,97339.63
2023-03-02T20:55:39.004Z,97341.38
2023-03-02T20:58:05.751Z,97331.97
2023-03-02T21:00:34.516Z,97338.84
2023-03-02T21:03:01.256Z,97346.25
2023-03-02T21:05:29.622Z,97336.97
2023-03-02T21:07:57.787Z,97340.75
2023-03-02T21:10:29.688Z,97344.28
2023-03-02T21:12:56.908Z,97342.84
2023-03-02T21:15:27.110Z,97339.50
2023-03-02T21:17:55.567Z,97342.75
2023-03-02T21:20:24.359Z,97342.03
2023-03-02T21:22:51.180Z,97346.25
2023-03-02T21:25:20.171Z,97353.41
2023-03-02T21:27:46.912Z,97354.81
2023-03-02T21:30:20.410Z,97344.06
2023-03-02T21:32:48.622Z,97348.94
2023-03-02T21:35:18.236Z,97345.22
2023-03-02T21:37:44.978Z,97350.22
2023-03-02T21:40:26.599Z,97357.03
2023-03-02T21:42:53.905Z,97354.38
2023-03-02T21:45:22.779Z,97350.13
2023-03-02T21:47:51.047Z,97348.25
2023-03-02T21:50:23.047Z,97350.13
2023-03-02T21:52:49.702Z,97360.78
2023-03-02T21:55:16.540Z,97355.78
2023-03-02T21:57:43.733Z,97366.69
2023-03-02T22:00:19.951Z,97369.72
2023-03-02T22:02:47.511Z,97363.31
2023-03-02T22:05:14.326Z,97357.72
2023-03-02T22:07:40.975Z,97355.63
2023-03-02T22:10:15.454Z,97350.41
2023-03-02T22:12:44.516Z,97357.44
2023-03-02T22:15:14.523Z,97363.84
2023-03-02T22:17:42.279Z,97361.38
2023-03-02T22:20:19.883Z,97358.47
2023-03-02T22:22:49.676Z,97370.22
2023-03-02T22:25:18.296Z,97369.41
2023-03-02T22:27:46.547Z,97363.38
2023-03-02T22:30:20.072Z,97359.19
2023-03-02T22:32:47.637Z,97362.25
2023-03-02T22:35:23.481Z,97363.59
2023-03-02T22:37:51.998Z,97364.78
2023-03-02T22:40:36.815Z,97373.88
2023-03-02T22:43:15.497Z,97371.84
2023-03-02T22:45:42.399Z,97365.75
2023-03-02T22:48:18.635Z,97360.28
2023-03-02T22:50:47.011Z,97365.03
2023-03-02T22:53:31.598Z,97374.06
2023-03-02T22:56:03.575Z,97371.97
2023-03-02T22:58:42.718Z,97374.34
2023-03-02T23:01:37.075Z,97370.63
2023-03-02T23:04:12.823Z,97374.38
2023-03-02T23:06:53.774Z,97376.22
2023-03-02T23:09:24.344Z,97376.03
2023-03-02T23:11:51.674Z,97369.31
2023-03-02T23:14:28.357Z,97361.59
2023-03-02T23:17:23.444Z,97360.47
2023-03-02T23:19:51.306Z,97359.75
2023-03-02T23:22:18.945Z,97361.53
2023-03-02T23:24:47.593Z,97358.38
2023-03-02T23:27:14.257Z,97357.31
2023-03-02T23:29:41.013Z,97348.63
2023-03-02T23:32:07.744Z,97351.03
2023-03-02T23:34:34.433Z,97347.28
2023-03-02T23:37:01.046Z,97352.97
2023-03-02T23:39:27.820Z,97338.97
2023-03-02T23:41:54.946Z,97344.91
2023-03-02T23:44:21.786Z,97340.72
2023-03-02T23:46:49.297Z,97345.28
2023-03-02T23:49:16.241Z,97340.47
2023-03-02T23:51:43.476Z,97339.56
2023-03-02T23:54:10.612Z,97344.72
2023-03-02T23:56:37.327Z,97341.06
2023-03-02T23:59:04.702Z,97350.31
